Time;durP1;ratioP1;P1;durP2;ratioP2;P2;SDS_P1;SDS_P2;PMS_P1;PMS_P2;Temp;Humidity;BMP_temperature;BMP_pressure;BME280_temperature;BME280_humidity;BME280_pressure;Samples;Min_cycle;Max_cycle;Signal;HPM_P1;HPM_P2
2024/03/27 00:04:24;;;;;;;0.00;0.00;;;;;;;7.43;100.00;94052.34;10418645;28;20106;-81
2024/03/27 00:09:24;;;;;;;0.00;0.00;;;;;;;7.52;100.00;94034.66;10414900;28;20021;-81
2024/03/27 00:14:25;;;;;;;0.00;0.00;;;;;;;7.24;100.00;94039.53;10419803;28;20025;-80
2024/03/27 00:19:25;;;;;;;0.00;0.00;;;;;;;7.35;100.00;94053.66;10411569;28;20063;-79
2024/03/27 00:24:28;;;;;;;0.00;0.00;;;;;;;7.29;100.00;94039.53;10416868;28;20338;-79
2024/03/27 00:29:29;;;;;;;0.00;0.00;;;;;;;7.19;100.00;94042.22;10405443;28;20268;-81
2024/03/27 00:34:29;;;;;;;0.00;0.00;;;;;;;7.09;100.00;94028.84;10402271;28;20367;-80
2024/03/27 00:39:29;;;;;;;0.00;0.00;;;;;;;7.20;100.00;94038.47;10410058;28;20029;-78
2024/03/27 00:44:30;;;;;;;0.00;0.00;;;;;;;7.06;100.00;94034.72;10398322;28;20627;-79
2024/03/27 00:49:30;;;;;;;0.00;0.00;;;;;;;6.82;100.00;94053.97;10410925;28;20762;-79
2024/03/27 00:54:33;;;;;;;0.00;0.00;;;;;;;6.81;100.00;94049.72;10401647;28;20282;-79
2024/03/27 00:59:34;;;;;;;0.00;0.00;;;;;;;6.71;100.00;94034.44;10404756;28;20029;-79
2024/03/27 01:04:34;;;;;;;0.00;0.00;;;;;;;6.88;100.00;94031.53;10417287;28;20033;-79
2024/03/27 01:09:35;;;;;;;0.00;0.00;;;;;;;7.03;100.00;94032.59;10418242;28;20263;-79
2024/03/27 01:14:35;;;;;;;0.00;0.00;;;;;;;7.09;100.00;94027.00;10417846;28;20471;-79
2024/03/27 01:19:35;;;;;;;0.00;0.00;;;;;;;7.00;100.00;94028.59;10418871;28;20392;-79
2024/03/27 01:24:35;;;;;;;0.00;0.00;;;;;;;7.02;100.00;94031.81;10426065;28;20293;-80
2024/03/27 01:29:36;;;;;;;0.00;0.00;;;;;;;7.04;100.00;94021.63;10426030;28;20271;-79
2024/03/27 01:34:36;;;;;;;0.00;0.00;;;;;;;6.88;100.00;94044.06;10425078;28;20291;-79
2024/03/27 01:39:37;;;;;;;0.00;0.00;;;;;;;6.87;100.00;94026.47;10425751;28;20287;-80
2024/03/27 01:44:37;;;;;;;0.00;0.00;;;;;;;6.96;100.00;94016.84;10424764;28;20119;-80
2024/03/27 01:49:39;;;;;;;0.00;0.00;;;;;;;6.94;100.00;94006.41;10425819;28;20741;-80
2024/03/27 01:54:40;;;;;;;0.00;0.00;;;;;;;6.78;100.00;94004.81;10425294;28;20805;-79
2024/03/27 01:59:41;;;;;;;0.00;0.00;;;;;;;6.84;100.00;93996.53;10423663;28;20056;-79
2024/03/27 02:04:42;;;;;;;0.00;0.00;;;;;;;6.95;100.00;94008.03;10407817;28;20033;-78
2024/03/27 02:09:42;;;;;;;0.00;0.00;;;;;;;6.84;100.00;94001.09;10410181;28;20760;-78
2024/03/27 02:14:43;;;;;;;0.00;0.00;;;;;;;6.98;100.00;93986.13;10421711;28;20025;-78
2024/03/27 02:19:43;;;;;;;0.00;0.00;;;;;;;6.96;100.00;93985.59;10421329;28;20025;-78
2024/03/27 02:24:54;;;;;;;0.00;0.00;;;;;;;7.03;100.00;93989.84;10422955;28;20017;-77
2024/03/27 02:29:54;;;;;;;0.00;0.00;;;;;;;6.98;100.00;94004.03;10437118;28;20275;-80
2024/03/27 02:34:55;;;;;;;0.00;0.00;;;;;;;6.91;100.00;93990.13;10428573;28;20091;-78
2024/03/27 02:39:55;;;;;;;0.00;0.00;;;;;;;6.88;100.00;93987.97;10424049;28;20021;-79
2024/03/27 02:44:56;;;;;;;0.00;0.00;;;;;;;6.98;100.00;93980.78;10431086;28;20293;-78
2024/03/27 02:49:56;;;;;;;0.00;0.00;;;;;;;7.05;100.00;93982.34;10430248;28;20124;-79
2024/03/27 02:54:57;;;;;;;0.00;0.00;;;;;;;6.99;100.00;94001.06;10420036;28;20264;-80
2024/03/27 02:59:57;;;;;;;0.00;0.00;;;;;;;7.06;100.00;93992.78;10447740;28;20443;-79
2024/03/27 03:04:57;;;;;;;0.00;0.00;;;;;;;7.11;100.00;93987.44;10429055;28;20025;-79
2024/03/27 03:09:58;;;;;;;0.00;0.00;;;;;;;7.12;100.00;93978.34;10432430;28;20263;-79
2024/03/27 03:14:58;;;;;;;0.00;0.00;;;;;;;7.16;100.00;93989.31;10432138;28;20611;-79
2024/03/27 03:19:58;;;;;;;0.00;0.00;;;;;;;7.07;100.00;93991.72;10429074;28;20029;-79
2024/03/27 03:24:59;;;;;;;0.00;0.00;;;;;;;7.12;100.00;93986.38;10432553;28;20029;-78
2024/03/27 03:30:00;;;;;;;0.00;0.00;;;;;;;7.22;100.00;93982.88;10431802;28;20264;-79
2024/03/27 03:40:07;;;;;;;0.00;0.00;;;;;;;7.16;100.00;93991.97;10319467;28;20132;-79
2024/03/27 03:45:08;;;;;;;0.00;0.00;;;;;;;7.27;100.00;94000.75;10332760;28;20539;-76
2024/03/27 03:50:08;;;;;;;0.00;0.00;;;;;;;6.98;100.00;93991.47;10334674;28;20026;-79
2024/03/27 03:55:09;;;;;;;0.00;0.00;;;;;;;6.93;100.00;93986.09;10333108;28;20463;-77
2024/03/27 04:00:15;;;;;;;0.00;0.00;;;;;;;6.98;100.00;93996.78;10334667;28;20433;-76
2024/03/27 04:05:16;;;;;;;0.00;0.00;;;;;;;6.99;100.00;93995.75;10317553;28;20018;-79
2024/03/27 04:10:16;;;;;;;0.00;0.00;;;;;;;6.96;100.00;93982.94;10318996;28;20022;-81
2024/03/27 04:15:17;;;;;;;0.00;0.00;;;;;;;6.98;100.00;93996.78;10319861;28;20049;-80
2024/03/27 04:20:17;;;;;;;0.00;0.00;;;;;;;6.89;100.00;93977.03;10305787;28;20034;-76
2024/03/27 04:25:19;;;;;;;0.00;0.00;;;;;;;6.84;100.00;93977.84;10322007;28;20282;-84
2024/03/27 04:30:20;;;;;;;0.00;0.00;;;;;;;6.83;100.00;93976.22;10315269;28;20102;-80
2024/03/27 04:35:20;;;;;;;0.00;0.00;;;;;;;6.81;100.00;94005.09;10315429;28;20420;-76
2024/03/27 04:40:21;;;;;;;0.00;0.00;;;;;;;6.92;100.00;94000.56;10315666;28;20512;-82
2024/03/27 04:45:21;;;;;;;0.00;0.00;;;;;;;6.97;100.00;93994.41;10322164;28;20336;-80
2024/03/27 04:50:23;;;;;;;0.00;0.00;;;;;;;6.92;100.00;93997.88;10315075;28;20828;-74
2024/03/27 04:55:23;;;;;;;0.00;0.00;;;;;;;6.97;100.00;93991.72;10311919;28;20022;-79
2024/03/27 05:00:23;;;;;;;0.00;0.00;;;;;;;7.09;100.00;93996.78;10313207;28;20038;-82
2024/03/27 05:05:24;;;;;;;0.00;0.00;;;;;;;7.12;100.00;93997.06;10311321;28;20372;-81
2024/03/27 05:10:24;;;;;;;0.00;0.00;;;;;;;7.11;100.00;93994.66;10354143;28;20269;-80
2024/03/27 05:15:24;;;;;;;0.00;0.00;;;;;;;7.07;100.00;93998.94;10315213;28;20031;-78
2024/03/27 05:20:27;;;;;;;0.00;0.00;;;;;;;7.20;100.00;93995.72;10290449;28;20286;-83
2024/03/27 05:25:28;;;;;;;0.00;0.00;;;;;;;7.33;100.00;93987.13;10318435;28;20034;-77
2024/03/27 05:30:28;;;;;;;0.00;0.00;;;;;;;7.41;100.00;93992.97;10310779;28;20022;-79
2024/03/27 05:35:28;;;;;;;0.00;0.00;;;;;;;7.52;100.00;93984.69;10302401;28;20298;-76
2024/03/27 05:40:29;;;;;;;0.00;0.00;;;;;;;7.68;100.00;93976.59;10325234;28;20026;-81
2024/03/27 05:45:30;;;;;;;0.00;0.00;;;;;;;7.82;100.00;93996.31;10309531;28;20027;-80
2024/03/27 05:50:32;;;;;;;0.00;0.00;;;;;;;8.01;100.00;93988.50;10307424;28;20130;-80
2024/03/27 05:55:32;;;;;;;0.00;0.00;;;;;;;8.15;100.00;93985.19;10307996;28;20416;-76
2024/03/27 06:00:33;;;;;;;0.00;0.00;;;;;;;8.38;100.00;93984.53;10316535;28;20027;-79
2024/03/27 06:05:33;;;;;;;0.00;0.00;;;;;;;8.59;100.00;93992.47;10296742;28;20425;-77
2024/03/27 06:10:34;;;;;;;0.00;0.00;;;;;;;8.82;100.00;93990.97;10282675;28;20500;-76
2024/03/27 06:15:35;;;;;;;0.00;0.00;;;;;;;9.00;100.00;93997.50;10315891;28;20030;-76
2024/03/27 06:20:38;;;;;;;0.00;0.00;;;;;;;8.98;100.00;93985.47;10317181;28;20087;-79
2024/03/27 06:25:40;;;;;;;0.00;0.00;;;;;;;9.18;100.00;93981.78;10304059;28;20042;-78
2024/03/27 06:30:41;;;;;;;0.00;0.00;;;;;;;9.65;100.00;93982.13;10291828;28;20118;-79
2024/03/27 06:35:42;;;;;;;0.00;0.00;;;;;;;10.12;100.00;93982.34;10320035;28;20070;-81
2024/03/27 06:40:43;;;;;;;0.00;0.00;;;;;;;10.59;100.00;93978.78;10319926;28;20093;-76
2024/03/27 06:45:46;;;;;;;0.00;0.00;;;;;;;10.92;100.00;94003.00;10318552;28;20101;-79
2024/03/27 06:50:54;;;;;;;0.00;0.00;;;;;;;11.40;100.00;93996.59;10336168;28;20049;-75
2024/03/27 06:55:54;;;;;;;;;;;;;;;11.45;100.00;94001.06;10321306;28;20126;-79
2024/03/27 07:00:54;;;;;;;0.00;0.00;;;;;;;11.63;100.00;93994.00;10304377;28;19917;-77
2024/03/27 07:05:55;;;;;;;0.00;0.00;;;;;;;11.80;100.00;93993.41;10305755;28;20412;-77
2024/03/27 07:11:03;;;;;;;0.00;0.00;;;;;;;12.05;100.00;93997.53;10319105;28;20328;-74
2024/03/27 07:16:04;;;;;;;0.00;0.00;;;;;;;12.79;100.00;93999.19;10318588;28;20364;-78
2024/03/27 07:21:08;;;;;;;0.00;0.00;;;;;;;13.47;100.00;93984.91;10319381;28;20026;-82
2024/03/27 07:26:09;;;;;;;0.00;0.00;;;;;;;13.66;100.00;93992.78;10308028;28;20038;-77
2024/03/27 07:31:09;;;;;;;0.00;0.00;;;;;;;13.31;100.00;93989.84;10319554;28;20026;-80
2024/03/27 07:36:09;;;;;;;0.00;0.00;;;;;;;13.66;100.00;93980.09;10320353;28;20054;-75
2024/03/27 07:41:09;;;;;;;0.00;0.00;;;;;;;14.76;100.00;93995.63;10318639;28;20309;-79
2024/03/27 07:46:11;;;;;;;0.00;0.00;;;;;;;15.53;97.44;93987.75;10317784;28;20327;-80
2024/03/27 07:51:13;;;;;;;0.00;0.00;;;;;;;15.91;97.07;93972.69;10316782;28;20867;-81
2024/03/27 07:56:13;;;;;;;0.00;0.00;;;;;;;16.36;91.59;93968.63;10314119;28;20588;-82
2024/03/27 08:01:13;;;;;;;0.00;0.00;;;;;;;17.07;84.01;93954.22;10315080;28;20030;-83
2024/03/27 08:06:14;;;;;;;0.00;0.00;;;;;;;16.90;86.61;93967.97;10312392;28;20098;-84
2024/03/27 08:11:14;;;;;;;0.00;0.00;;;;;;;17.14;75.50;93972.69;10313356;28;20694;-80
2024/03/27 08:16:15;;;;;;;0.00;0.00;;;;;;;16.57;93.37;93953.16;10315531;28;20030;-84
2024/03/27 08:21:15;;;;;;;0.00;0.00;;;;;;;16.81;85.11;93948.97;10315281;28;20034;-76
2024/03/27 08:26:16;;;;;;;0.00;0.00;;;;;;;16.78;92.15;93938.00;10316088;28;20022;-80
2024/03/27 08:31:16;;;;;;;0.00;0.00;;;;;;;16.61;83.21;93953.31;10314130;28;20065;-77
2024/03/27 08:36:17;;;;;;;0.00;0.00;;;;;;;16.39;83.91;93962.53;10317274;28;20305;-81
2024/03/27 08:41:18;;;;;;;0.00;0.00;;;;;;;17.17;84.80;93965.81;10315087;28;20513;-80
2024/03/27 08:46:19;;;;;;;0.00;0.00;;;;;;;17.70;88.24;93947.03;10316520;28;20120;-80
2024/03/27 08:51:19;;;;;;;0.00;0.00;;;;;;;18.52;72.67;93951.59;10315015;28;20277;-74
2024/03/27 08:56:19;;;;;;;0.00;0.00;;;;;;;17.63;76.78;93949.53;10315479;28;20058;-81
2024/03/27 09:01:20;;;;;;;0.00;0.00;;;;;;;17.77;84.85;93950.78;10317364;28;20066;-77
2024/03/27 09:06:22;;;;;;;0.00;0.00;;;;;;;18.31;68.54;93934.59;10301585;28;20572;-76
2024/03/27 09:11:22;;;;;;;0.00;0.00;;;;;;;18.34;76.23;93944.81;10315209;28;20053;-79
2024/03/27 09:16:22;;;;;;;0.00;0.00;;;;;;;18.43;79.24;93940.03;10315125;28;20552;-76
2024/03/27 09:21:24;;;;;;;0.00;0.00;;;;;;;18.65;66.67;93936.03;10314161;28;20030;-79
2024/03/27 09:26:24;;;;;;;0.00;0.00;;;;;;;19.15;62.65;93941.34;10314909;28;20121;-78
2024/03/27 09:31:25;;;;;;;0.00;0.00;;;;;;;19.29;64.64;93939.78;10314118;28;20034;-80
2024/03/27 09:36:25;;;;;;;0.00;0.00;;;;;;;19.61;68.86;93936.34;10315473;28;20124;-81
2024/03/27 09:41:26;;;;;;;0.00;0.00;;;;;;;19.22;65.94;93945.06;10315226;28;20468;-77
2024/03/27 09:46:27;;;;;;;0.00;0.00;;;;;;;19.74;61.80;93948.75;10305181;28;20292;-76
2024/03/27 09:51:30;;;;;;;0.00;0.00;;;;;;;21.93;51.70;93934.69;10323290;28;20030;-75
2024/03/27 09:56:31;;;;;;;0.00;0.00;;;;;;;22.55;51.09;93926.28;10320323;28;20042;-75
2024/03/27 10:01:32;;;;;;;0.00;0.00;;;;;;;23.88;48.66;93910.63;10318247;28;20122;-74
2024/03/27 10:06:32;;;;;;;0.00;0.00;;;;;;;24.68;44.02;93918.28;10309041;28;20030;-75
2024/03/27 10:11:32;;;;;;;0.00;0.00;;;;;;;25.39;41.62;93914.31;10313995;28;20289;-80
2024/03/27 10:16:33;;;;;;;0.00;0.00;;;;;;;24.92;41.02;93918.81;10306618;28;20038;-75
2024/03/27 10:21:33;;;;;;;0.00;0.00;;;;;;;24.05;41.31;93920.97;10307711;28;20030;-80
2024/03/27 10:26:35;;;;;;;0.00;0.00;;;;;;;24.62;41.15;93905.31;10322501;28;20053;-80
2024/03/27 10:31:35;;;;;;;0.00;0.00;;;;;;;25.46;39.91;93910.81;10321368;28;20026;-76
2024/03/27 10:36:35;;;;;;;0.00;0.00;;;;;;;25.81;38.09;93887.28;10319659;28;20073;-77
2024/03/27 10:41:38;;;;;;;0.00;0.00;;;;;;;25.45;38.53;93891.94;10298811;28;20081;-76
2024/03/27 10:46:42;;;;;;;0.00;0.00;;;;;;;24.61;40.44;93898.25;10319252;28;20030;-78
2024/03/27 10:51:43;;;;;;;0.00;0.00;;;;;;;23.49;42.96;93900.81;10319312;28;20493;-76
2024/03/27 10:56:43;;;;;;;0.00;0.00;;;;;;;22.22;45.97;93905.81;10319550;28;20061;-76
2024/03/27 11:01:44;;;;;;;0.00;0.00;;;;;;;21.22;48.91;93907.59;10318067;28;20041;-73
2024/03/27 11:06:44;;;;;;;0.00;0.00;;;;;;;20.32;53.17;93903.78;10319295;28;20413;-74
2024/03/27 11:11:44;;;;;;;0.00;0.00;;;;;;;19.33;57.63;93909.94;10319555;28;20030;-82
2024/03/27 11:16:58;;;;;;;0.00;0.00;;;;;;;18.88;65.29;93909.13;10320355;28;20120;-82
2024/03/27 11:22:17;;;;;;;0.00;0.00;;;;;;;18.49;65.63;93908.75;10317507;28;20421;-76
2024/03/27 11:27:44;;;;;;;0.00;0.00;;;;;;;17.90;71.30;93891.00;10308016;28;20038;-84
2024/03/27 11:32:46;;;;;;;0.00;0.00;;;;;;;18.39;73.43;93892.88;10301964;28;20041;-81
2024/03/27 11:37:47;;;;;;;0.00;0.00;;;;;;;18.80;68.64;93896.41;10315696;28;20054;-81
2024/03/27 11:42:48;;;;;;;0.00;0.00;;;;;;;18.98;66.74;93890.69;10303400;28;20038;-80
2024/03/27 11:47:51;;;;;;;0.00;0.00;;;;;;;19.00;67.63;93888.41;10284527;28;20026;-76
2024/03/27 11:52:54;;;;;;;0.00;0.00;;;;;;;18.68;70.49;93877.41;10317405;28;20059;-74
2024/03/27 11:57:57;;;;;;;0.00;0.00;;;;;;;18.41;72.00;93879.75;10318041;28;20065;-82
2024/03/27 12:03:01;;;;;;;0.00;0.00;;;;;;;18.35;75.81;93864.78;10314944;28;20038;-81
2024/03/27 12:08:02;;;;;;;0.00;0.00;;;;;;;18.33;75.16;93850.75;10317858;28;20033;-81
2024/03/27 12:13:04;;;;;;;0.00;0.00;;;;;;;18.18;78.75;93852.25;10300043;28;20034;-80
2024/03/27 12:18:04;;;;;;;0.00;0.00;;;;;;;18.18;79.01;93828.59;10317935;28;20037;-83
2024/03/27 12:23:05;;;;;;;0.00;0.00;;;;;;;18.23;77.86;93820.16;10309660;28;20034;-77
2024/03/27 12:28:05;;;;;;;0.00;0.00;;;;;;;18.33;75.56;93815.38;10311312;28;20782;-84
2024/03/27 12:33:06;;;;;;;0.00;0.00;;;;;;;18.48;80.65;93817.38;10317791;28;20018;-81
2024/03/27 12:38:07;;;;;;;0.00;0.00;;;;;;;18.41;75.75;93812.50;10303519;28;20302;-83
2024/03/27 12:43:09;;;;;;;0.00;0.00;;;;;;;17.97;78.72;93803.47;10313261;28;20303;-81
2024/03/27 12:48:20;;;;;;;0.00;0.00;;;;;;;18.05;81.93;93797.09;10301168;28;20452;-80
2024/03/27 12:53:21;;;;;;;0.00;0.00;;;;;;;17.98;78.68;93814.00;10315450;28;20034;-81
2024/03/27 12:58:21;;;;;;;0.00;0.00;;;;;;;17.83;83.91;93817.38;10318092;28;20413;-81
2024/03/27 13:03:22;;;;;;;0.00;0.00;;;;;;;17.70;86.57;93806.53;10315580;28;20281;-84
2024/03/27 13:08:22;;;;;;;0.00;0.00;;;;;;;18.01;86.34;93807.06;10314591;28;20133;-82
2024/03/27 13:13:24;;;;;;;0.00;0.00;;;;;;;18.08;84.92;93804.56;10315970;28;20130;-82
2024/03/27 13:18:26;;;;;;;0.00;0.00;;;;;;;18.40;81.31;93804.69;10325564;28;20030;-82
2024/03/27 13:23:27;;;;;;;0.00;0.00;;;;;;;17.97;85.67;93817.06;10323494;28;20022;-81
2024/03/27 13:28:27;;;;;;;0.00;0.00;;;;;;;17.86;84.69;93808.53;10323700;28;20034;-81
2024/03/27 13:33:28;;;;;;;0.00;0.00;;;;;;;17.35;87.10;93812.41;10324319;28;20121;-79
2024/03/27 13:38:28;;;;;;;0.00;0.00;;;;;;;16.75;92.79;93801.09;10318577;28;20060;-80
2024/03/27 13:43:30;;;;;;;0.00;0.00;;;;;;;16.86;94.58;93801.47;10323977;28;20285;-81
2024/03/27 13:48:30;;;;;;;0.00;0.00;;;;;;;17.21;91.75;93799.16;10324434;28;20273;-81
2024/03/27 13:53:31;;;;;;;0.00;0.00;;;;;;;17.57;93.42;93799.53;10325925;28;20030;-76
2024/03/27 13:58:31;;;;;;;0.00;0.00;;;;;;;17.58;88.67;93810.03;10327131;28;20026;-79
2024/03/27 14:03:32;;;;;;;0.00;0.00;;;;;;;17.38;89.15;93802.78;10327155;28;20030;-85
2024/03/27 14:08:32;;;;;;;0.00;0.00;;;;;;;17.59;91.08;93805.41;10308875;28;20042;-84
2024/03/27 14:13:33;;;;;;;0.00;0.00;;;;;;;17.77;88.24;93814.09;10327598;28;20133;-78
2024/03/27 14:18:33;;;;;;;0.00;0.00;;;;;;;17.75;93.00;93787.28;10321149;28;20505;-76
2024/03/27 14:23:33;;;;;;;0.00;0.00;;;;;;;17.61;91.08;93795.00;10322541;28;20030;-75
2024/03/27 14:28:34;;;;;;;0.00;0.00;;;;;;;17.35;91.88;93798.03;10320447;28;20042;-77
2024/03/27 14:33:34;;;;;;;0.00;0.00;;;;;;;17.55;90.74;93818.06;10309122;28;20297;-79
2024/03/27 14:38:35;;;;;;;0.00;0.00;;;;;;;17.53;91.55;93798.63;10313578;28;20870;-82
2024/03/27 14:43:35;;;;;;;0.00;0.00;;;;;;;17.41;93.19;93777.66;10318261;28;20034;-82
2024/03/27 14:48:36;;;;;;;0.00;0.00;;;;;;;16.79;97.12;93766.72;10319479;28;20027;-80
2024/03/27 14:53:37;;;;;;;0.00;0.00;;;;;;;16.94;98.48;93773.47;10319460;28;20100;-81
2024/03/27 14:58:37;;;;;;;0.00;0.00;;;;;;;16.76;96.70;93772.84;10319734;28;20091;-82
2024/03/27 15:03:37;;;;;;;0.00;0.00;;;;;;;16.43;97.60;93773.63;10319383;28;20019;-80
2024/03/27 15:08:38;;;;;;;0.00;0.00;;;;;;;16.29;98.51;93783.97;10319116;28;20030;-83
2024/03/27 15:13:38;;;;;;;0.00;0.00;;;;;;;16.23;100.00;93789.59;10317273;28;20026;-75
2024/03/27 15:18:38;;;;;;;0.00;0.00;;;;;;;16.30;100.00;93789.06;10318845;28;20088;-77
2024/03/27 15:23:39;;;;;;;0.00;0.00;;;;;;;16.14;100.00;93782.66;10320848;28;20113;-83
2024/03/27 15:28:39;;;;;;;0.00;0.00;;;;;;;15.73;100.00;93776.88;10318774;28;20052;-79
2024/03/27 15:33:40;;;;;;;0.00;0.00;;;;;;;15.35;100.00;93791.28;10318199;28;20671;-80
2024/03/27 15:38:41;;;;;;;0.00;0.00;;;;;;;15.38;100.00;93793.34;10296112;28;20054;-83
2024/03/27 15:43:42;;;;;;;0.00;0.00;;;;;;;15.24;100.00;93781.94;10317293;28;20521;-76
2024/03/27 15:48:44;;;;;;;0.00;0.00;;;;;;;15.25;100.00;93791.63;10303385;28;20236;-80
2024/03/27 15:53:45;;;;;;;0.00;0.00;;;;;;;15.03;100.00;93788.88;10317054;28;20064;-75
2024/03/27 15:58:45;;;;;;;0.00;0.00;;;;;;;14.85;100.00;93792.75;10316929;28;20152;-79
2024/03/27 16:03:45;;;;;;;0.00;0.00;;;;;;;14.70;100.00;93796.78;10318274;28;20293;-80
2024/03/27 16:08:46;;;;;;;0.00;0.00;;;;;;;14.47;100.00;93782.63;10301374;28;20279;-80
2024/03/27 16:13:46;;;;;;;0.00;0.00;;;;;;;14.51;100.00;93781.69;10316082;28;20018;-80
2024/03/27 16:18:46;;;;;;;0.00;0.00;;;;;;;14.45;100.00;93785.66;10319041;28;20120;-83
2024/03/27 16:23:47;;;;;;;0.00;0.00;;;;;;;14.31;100.00;93799.34;10317792;28;20026;-83
2024/03/27 16:28:47;;;;;;;0.00;0.00;;;;;;;14.11;100.00;93803.50;10318268;28;20022;-80
2024/03/27 16:33:47;;;;;;;0.00;0.00;;;;;;;13.98;100.00;93796.34;10316938;28;20533;-80
2024/03/27 16:38:48;;;;;;;0.00;0.00;;;;;;;13.93;100.00;93801.91;10310874;28;20054;-77
2024/03/27 16:43:48;;;;;;;0.00;0.00;;;;;;;13.72;100.00;93807.13;10315446;28;20265;-79
2024/03/27 16:48:49;;;;;;;0.00;0.00;;;;;;;13.55;100.00;93805.19;10318200;28;20531;-74
2024/03/27 16:53:49;;;;;;;0.00;0.00;;;;;;;13.37;100.00;93810.56;10317030;28;20034;-76
2024/03/27 16:58:49;;;;;;;0.00;0.00;;;;;;;13.21;100.00;93809.34;10318389;28;20060;-79
2024/03/27 17:03:51;;;;;;;0.00;0.00;;;;;;;12.93;100.00;93806.84;10312718;28;20054;-75
2024/03/27 17:08:52;;;;;;;0.00;0.00;;;;;;;12.71;100.00;93807.69;10325304;23;20061;-78
2024/03/27 17:13:54;;;;;;;0.00;0.00;;;;;;;12.75;100.00;93808.69;10350718;28;20374;-74
2024/03/27 17:18:54;;;;;;;0.00;0.00;;;;;;;12.83;100.00;93810.63;10358073;28;20099;-76
2024/03/27 17:23:57;;;;;;;0.00;0.00;;;;;;;12.87;100.00;93817.00;10358798;28;20084;-78
2024/03/27 17:28:57;;;;;;;0.00;0.00;;;;;;;12.68;100.00;93811.81;10356102;28;20018;-82
2024/03/27 17:33:58;;;;;;;0.00;0.00;;;;;;;12.69;100.00;93824.19;10354483;28;20041;-82
2024/03/27 17:38:59;;;;;;;0.00;0.00;;;;;;;12.78;100.00;93827.75;10355017;28;20040;-76
2024/03/27 17:43:59;;;;;;;0.00;0.00;;;;;;;12.74;100.00;93823.25;10349002;28;21229;-75
2024/03/27 17:49:00;;;;;;;0.00;0.00;;;;;;;12.82;100.00;93827.91;10353091;28;20030;-79
2024/03/27 17:54:00;;;;;;;0.00;0.00;;;;;;;12.85;100.00;93826.50;10353002;28;20412;-80
2024/03/27 17:59:00;;;;;;;0.00;0.00;;;;;;;12.70;100.00;93839.25;10350678;28;20277;-79
2024/03/27 18:04:01;;;;;;;0.00;0.00;;;;;;;12.56;100.00;93843.91;10341735;28;20034;-75
2024/03/27 18:09:01;;;;;;;0.00;0.00;;;;;;;12.50;100.00;93831.69;10359548;28;20062;-79
2024/03/27 18:14:01;;;;;;;0.00;0.00;;;;;;;12.35;100.00;93839.03;10363081;28;20041;-77
2024/03/27 18:19:02;;;;;;;0.00;0.00;;;;;;;12.43;100.00;93851.78;10361029;28;20103;-77
2024/03/27 18:24:03;;;;;;;0.00;0.00;;;;;;;12.35;100.00;93839.03;10358612;28;20061;-74
2024/03/27 18:29:03;;;;;;;0.00;0.00;;;;;;;12.28;100.00;93834.06;10358398;28;20028;-74
2024/03/27 18:34:04;;;;;;;0.00;0.00;;;;;;;12.22;100.00;93827.19;10360279;28;20550;-77
2024/03/27 18:39:05;;;;;;;0.00;0.00;;;;;;;12.22;100.00;93832.59;10358961;28;20097;-72
2024/03/27 18:44:05;;;;;;;0.00;0.00;;;;;;;12.13;100.00;93837.13;10357520;28;20534;-74
2024/03/27 18:49:05;;;;;;;0.00;0.00;;;;;;;12.06;100.00;93845.63;10359800;28;20050;-82
2024/03/27 18:54:06;;;;;;;0.00;0.00;;;;;;;12.02;100.00;93847.34;10356298;28;20283;-81
2024/03/27 18:59:08;;;;;;;0.00;0.00;;;;;;;12.14;100.00;93842.22;10339776;28;20289;-81
2024/03/27 19:04:09;;;;;;;0.00;0.00;;;;;;;12.23;100.00;93833.41;10358371;28;20018;-79
2024/03/27 19:09:10;;;;;;;0.00;0.00;;;;;;;12.19;100.00;93835.13;10357730;28;20049;-80
2024/03/27 19:14:13;;;;;;;0.00;0.00;;;;;;;12.00;100.00;93819.94;10358573;28;20152;-74
2024/03/27 19:19:14;;;;;;;0.00;0.00;;;;;;;11.76;100.00;93806.69;10357958;28;20083;-78
2024/03/27 19:24:14;;;;;;;0.00;0.00;;;;;;;11.59;100.00;93797.34;10357838;28;20107;-78
2024/03/27 19:29:15;;;;;;;0.00;0.00;;;;;;;11.61;100.00;93810.53;10359840;28;20715;-76
2024/03/27 19:34:15;;;;;;;0.00;0.00;;;;;;;11.69;100.00;93801.72;10357009;28;20409;-79
2024/03/27 19:39:15;;;;;;;0.00;0.00;;;;;;;11.73;100.00;93807.28;10356803;28;20335;-76
2024/03/27 19:44:16;;;;;;;0.00;0.00;;;;;;;11.64;100.00;93801.84;10356356;28;20273;-79
2024/03/27 19:49:18;;;;;;;0.00;0.00;;;;;;;11.65;100.00;93797.25;10357619;28;20734;-81
2024/03/27 19:54:19;;;;;;;0.00;0.00;;;;;;;11.59;100.00;93780.41;10355423;28;20711;-73
2024/03/27 19:59:19;;;;;;;0.00;0.00;;;;;;;11.54;100.00;93788.59;10356782;28;20033;-73
2024/03/27 20:04:20;;;;;;;0.00;0.00;;;;;;;11.50;100.00;93785.72;10355351;28;20338;-74
2024/03/27 20:09:20;;;;;;;0.00;0.00;;;;;;;11.43;100.00;93783.44;10355121;28;20307;-76
2024/03/27 20:14:21;;;;;;;0.00;0.00;;;;;;;11.53;100.00;93777.03;10356209;28;20479;-76
2024/03/27 20:19:22;;;;;;;0.00;0.00;;;;;;;11.53;100.00;93773.56;10356353;28;20033;-78
2024/03/27 20:24:46;;;;;;;0.00;0.00;;;;;;;11.55;100.00;93777.53;10355703;28;20034;-79
2024/03/27 20:29:46;;;;;;;0.00;0.00;;;;;;;11.48;100.00;93762.91;10356032;28;20463;-75
2024/03/27 20:34:46;;;;;;;0.00;0.00;;;;;;;11.49;100.00;93770.66;10355436;28;20056;-75
2024/03/27 20:39:47;;;;;;;0.00;0.00;;;;;;;11.63;100.00;93770.63;10353291;28;20463;-79
2024/03/27 20:44:48;;;;;;;0.00;0.00;;;;;;;11.66;100.00;93775.41;10351671;28;20273;-74
2024/03/27 20:49:48;;;;;;;0.00;0.00;;;;;;;11.63;100.00;93766.03;10354899;28;20087;-79
2024/03/27 20:54:48;;;;;;;0.00;0.00;;;;;;;11.66;100.00;93770.03;10352131;28;20033;-76
2024/03/27 20:59:49;;;;;;;0.00;0.00;;;;;;;11.68;100.00;93777.78;10351406;28;20036;-79
2024/03/27 21:04:49;;;;;;;0.00;0.00;;;;;;;11.71;100.00;93778.00;10351214;28;20065;-81
2024/03/27 21:09:51;;;;;;;0.00;0.00;;;;;;;11.80;100.00;93769.97;10349187;28;20097;-81
2024/03/27 21:14:51;;;;;;;0.00;0.00;;;;;;;11.79;100.00;93790.72;10343740;28;20269;-78
2024/03/27 21:19:54;;;;;;;0.00;0.00;;;;;;;11.85;100.00;93779.84;10353187;28;20481;-78
2024/03/27 21:24:54;;;;;;;0.00;0.00;;;;;;;11.88;100.00;93771.16;10352517;28;21690;-74
2024/03/27 21:29:55;;;;;;;0.00;0.00;;;;;;;11.86;100.00;93762.59;10350999;28;20026;-75
2024/03/27 21:34:55;;;;;;;0.00;0.00;;;;;;;11.85;100.00;93751.03;10353909;28;20021;-78
2024/03/27 21:39:57;;;;;;;0.00;0.00;;;;;;;11.92;100.00;93739.84;10360265;28;20512;-77
2024/03/27 21:44:58;;;;;;;0.00;0.00;;;;;;;11.99;100.00;93761.78;10360656;28;20065;-74
2024/03/27 21:49:59;;;;;;;0.00;0.00;;;;;;;12.01;100.00;93759.56;10360032;28;20456;-75
2024/03/27 21:54:59;;;;;;;0.00;0.00;;;;;;;11.90;100.00;93747.41;10360716;28;20029;-76
2024/03/27 22:00:00;;;;;;;0.00;0.00;;;;;;;11.74;100.00;93755.84;10358672;28;20467;-76
2024/03/27 22:05:00;;;;;;;0.00;0.00;;;;;;;11.85;100.00;93756.41;10359212;28;20036;-72
2024/03/27 22:10:00;;;;;;;0.00;0.00;;;;;;;11.94;100.00;93751.13;10338556;28;20037;-80
2024/03/27 22:15:04;;;;;;;0.00;0.00;;;;;;;11.88;100.00;93741.56;10359765;28;20051;-79
2024/03/27 22:20:05;;;;;;;0.00;0.00;;;;;;;11.90;100.00;93739.34;10342103;28;20018;-75
2024/03/27 22:25:05;;;;;;;0.00;0.00;;;;;;;11.80;100.00;93737.69;10358748;28;20014;-79
2024/03/27 22:30:06;;;;;;;0.00;0.00;;;;;;;11.36;100.00;93733.81;10357529;28;20029;-73
2024/03/27 22:35:07;;;;;;;0.00;0.00;;;;;;;11.33;100.00;93748.69;10356178;28;20021;-80
2024/03/27 22:40:08;;;;;;;0.00;0.00;;;;;;;11.30;100.00;93735.81;10358411;28;20033;-79
2024/03/27 22:45:09;;;;;;;0.00;0.00;;;;;;;11.18;100.00;93730.19;10359171;28;20493;-83
2024/03/27 22:50:09;;;;;;;0.00;0.00;;;;;;;11.13;100.00;93723.00;10358611;28;20105;-79
2024/03/27 22:55:13;;;;;;;0.00;0.00;;;;;;;11.10;100.00;93710.16;10358208;28;20026;-77
2024/03/27 23:00:21;;;;;;;0.00;0.00;;;;;;;10.84;100.00;93713.41;10355948;28;20022;-80
2024/03/27 23:05:23;;;;;;;0.00;0.00;;;;;;;10.78;100.00;93706.53;10359199;28;20501;-80
2024/03/27 23:10:23;;;;;;;0.00;0.00;;;;;;;10.79;100.00;93700.06;10357416;28;20053;-78
2024/03/27 23:15:23;;;;;;;0.00;0.00;;;;;;;10.85;100.00;93681.94;10356599;28;20072;-79
2024/03/27 23:20:24;;;;;;;0.00;0.00;;;;;;;10.62;100.00;93684.53;10339953;28;20806;-73